Time;durP1;ratioP1;P1;durP2;ratioP2;P2;SDS_P1;SDS_P2;PMS_P1;PMS_P2;Temp;Humidity;BMP_temperature;BMP_pressure;BME280_temperature;BME280_humidity;BME280_pressure;Samples;Min_cycle;Max_cycle;Signal;HPM_P1;HPM_P2
2023/12/12 06:51:09;;;;;;;;;;;;;;;;;;10616155;28;20027;-85
2023/12/12 06:56:40;;;;;;;13.18;3.70;;;;;;;;;;10615759;22;19965;-85
2023/12/12 07:02:04;;;;;;;5.10;2.10;;;;;;;;;;10560290;28;20039;-85
2023/12/12 07:07:08;;;;;;;7.75;2.80;;;;;;;;;;10600981;28;20103;-85
2023/12/12 07:12:14;;;;;;;8.07;2.63;;;;;;;;;;10603024;28;20046;-85
2023/12/12 07:17:25;;;;;;;5.70;2.10;;;;;;;;;;10620877;28;20094;-85
2023/12/12 07:22:29;;;;;;;7.70;2.78;;;;;;;;;;10629139;28;20028;-85
2023/12/12 07:27:30;;;;;;;6.80;2.63;;;;;;;;;;10640636;28;20039;-85
2023/12/12 07:32:34;;;;;;;;;;;;;;;;;;10620687;28;20027;-85
2023/12/12 07:37:35;;;;;;;12.95;4.00;;;;;;;;;;10644755;27;19915;-85
2023/12/12 07:42:36;;;;;;;;;;;;;;;;;;10621814;28;20034;-85
2023/12/12 07:47:37;;;;;;;7.93;2.97;;;;;;;;;;10621157;28;19951;-85
2023/12/12 07:52:38;;;;;;;;;;;;;;;;;;10614402;28;20223;-84
2023/12/12 07:57:39;;;;;;;7.78;2.60;;;;;;;;;;10594023;28;20124;-84
2023/12/12 08:02:40;;;;;;;;;;;;;;;;;;10592482;28;20042;-84
2023/12/12 08:07:41;;;;;;;8.85;2.60;;;;;;;;;;10587454;28;19904;-82
2023/12/12 08:12:43;;;;;;;8.27;3.08;;;;;;;;;;10587710;28;20072;-83
2023/12/12 08:17:44;;;;;;;7.72;2.90;;;;;;;;;;10576696;28;20031;-80
2023/12/12 08:22:45;;;;;;;;;;;;;;;;;;10576666;28;20027;-79
2023/12/12 08:27:47;;;;;;;15.27;4.43;;;;;;;;;;10576644;28;19904;-81
2023/12/12 08:32:48;;;;;;;18.67;5.13;;;;;;;;;;10577484;28;20487;-81
2023/12/12 08:37:49;;;;;;;;;;;;;;;;;;10573664;28;20114;-81
2023/12/12 08:42:50;;;;;;;13.48;5.30;;;;;;;;;;10590925;28;19911;-80
2023/12/12 08:47:51;;;;;;;;;;;;;;;;;;10576232;28;20057;-81
2023/12/12 08:52:58;;;;;;;13.60;4.10;;;;;;;;;;10579417;28;19982;-83
2023/12/12 08:58:00;;;;;;;8.23;3.25;;;;;;;;;;10582540;28;20059;-82
2023/12/12 09:03:01;;;;;;;10.60;3.10;;;;;;;;;;10597602;28;20028;-81
2023/12/12 09:08:02;;;;;;;11.05;3.30;;;;;;;;;;10600864;28;20053;-82
2023/12/12 09:13:23;;;;;;;;;;;;;;;;;;10618993;28;20051;-82
2023/12/12 09:18:46;;;;;;;8.98;3.38;;;;;;;;;;10590816;28;19908;-82
2023/12/12 09:29:57;;;;;;;10.52;4.00;;;;;;;;;;10590794;28;20023;-80
2023/12/12 09:35:18;;;;;;;10.82;4.22;;;;;;;;;;10588614;28;20028;-80
2023/12/12 09:40:20;;;;;;;11.70;4.10;;;;;;;;;;10570657;28;20383;-80
2023/12/12 09:45:25;;;;;;;12.15;3.72;;;;;;;;;;10555577;28;20080;-79
2023/12/12 09:50:27;;;;;;;12.32;4.00;;;;;;;;;;10571190;28;20026;-80
2023/12/12 09:55:29;;;;;;;8.55;2.92;;;;;;;;;;10574122;28;20077;-79
2023/12/12 10:00:31;;;;;;;8.23;3.10;;;;;;;;;;10572244;28;20024;-80
2023/12/12 10:05:42;;;;;;;10.95;2.72;;;;;;;;;;10556182;28;20024;-79
2023/12/12 10:10:46;;;;;;;9.73;2.72;;;;;;;;;;10576128;28;20546;-79
2023/12/12 10:15:47;;;;;;;9.38;2.47;;;;;;;;;;10577079;28;20035;-80
2023/12/12 10:20:49;;;;;;;11.20;2.92;;;;;;;;;;10570682;28;20106;-78
2023/12/12 10:25:51;;;;;;;9.52;3.00;;;;;;;;;;10572744;28;20023;-82
2023/12/12 10:30:52;;;;;;;7.97;2.65;;;;;;;;;;10574355;28;20093;-81
2023/12/12 10:35:54;;;;;;;13.63;2.90;;;;;;;;;;10572266;28;20023;-80
2023/12/12 10:40:59;;;;;;;10.23;2.90;;;;;;;;;;10592210;28;20408;-81
2023/12/12 10:46:02;;;;;;;7.97;2.90;;;;;;;;;;10591721;28;20398;-81
2023/12/12 10:51:07;;;;;;;7.80;2.88;;;;;;;;;;10574060;28;20024;-80
2023/12/12 10:56:09;;;;;;;7.95;2.50;;;;;;;;;;10556340;28;20036;-82
2023/12/12 11:01:12;;;;;;;5.93;2.15;;;;;;;;;;10573250;28;20085;-81
2023/12/12 11:06:14;;;;;;;6.97;2.53;;;;;;;;;;10573350;28;20064;-81
2023/12/12 11:11:18;;;;;;;6.25;2.10;;;;;;;;;;10573711;28;20122;-81
2023/12/12 11:16:19;;;;;;;9.80;2.30;;;;;;;;;;10589101;28;20036;-82
2023/12/12 11:21:39;;;;;;;6.00;2.22;;;;;;;;;;10590040;28;20034;-81
2023/12/12 11:27:10;;;;;;;6.40;2.08;;;;;;;;;;10574941;28;20019;-81
2023/12/12 11:32:30;;;;;;;5.18;1.77;;;;;;;;;;10559626;28;20039;-81
2023/12/12 11:37:41;;;;;;;8.95;2.83;;;;;;;;;;10575977;28;20019;-80
2023/12/12 11:42:44;;;;;;;5.25;1.85;;;;;;;;;;10562538;28;20077;-82
2023/12/12 11:47:48;;;;;;;5.18;2.03;;;;;;;;;;10584621;28;20372;-82
2023/12/12 11:52:53;;;;;;;7.32;2.35;;;;;;;;;;10601527;28;20089;-81
2023/12/12 11:58:02;;;;;;;8.40;2.85;;;;;;;;;;10562397;28;20126;-80
2023/12/12 12:03:03;;;;;;;6.07;2.00;;;;;;;;;;10582427;28;20098;-81
2023/12/12 12:08:09;;;;;;;8.88;2.00;;;;;;;;;;10584070;28;20023;-82
2023/12/12 12:13:10;;;;;;;5.10;1.55;;;;;;;;;;10572761;28;20127;-81
2023/12/12 12:18:28;;;;;;;4.22;1.52;;;;;;;;;;10606707;28;20032;-82
2023/12/12 12:23:32;;;;;;;6.53;1.77;;;;;;;;;;10583210;28;20024;-82
2023/12/12 12:28:34;;;;;;;6.07;1.80;;;;;;;;;;10601010;28;20080;-82
2023/12/12 12:33:40;;;;;;;8.00;2.90;;;;;;;;;;10582172;28;20064;-82
2023/12/12 12:38:42;;;;;;;6.50;2.13;;;;;;;;;;10566060;28;20030;-84
2023/12/12 12:43:51;;;;;;;5.53;1.90;;;;;;;;;;10582169;28;20374;-83
2023/12/12 12:48:52;;;;;;;6.78;1.63;;;;;;;;;;10599087;28;20024;-82
2023/12/12 12:53:53;;;;;;;;;;;;;;;;;;10586659;28;20023;-81
2023/12/12 12:58:54;;;;;;;8.95;2.15;;;;;;;;;;10576168;22;19928;-84
2023/12/12 13:03:55;;;;;;;;;;;;;;;;;;10553366;28;20032;-81
2023/12/12 13:08:57;;;;;;;4.22;1.45;;;;;;;;;;10573334;28;19904;-80
2023/12/12 13:13:58;;;;;;;4.55;1.90;;;;;;;;;;10588058;28;20036;-83
2023/12/12 13:18:59;;;;;;;4.45;1.42;;;;;;;;;;10573993;28;20023;-80
2023/12/12 13:24:00;;;;;;;;;;;;;;;;;;10580897;28;20028;-83
2023/12/12 13:29:01;;;;;;;3.47;1.33;;;;;;;;;;10575628;28;19919;-82
2023/12/12 13:34:02;;;;;;;;;;;;;;;;;;10595157;28;20034;-83
2023/12/12 13:39:04;;;;;;;2.80;1.10;;;;;;;;;;10595737;28;19953;-84
2023/12/12 13:44:06;;;;;;;3.90;1.02;;;;;;;;;;10579958;28;20479;-82
2023/12/12 13:49:12;;;;;;;2.88;1.30;;;;;;;;;;10590615;28;20019;-83
2023/12/12 13:54:13;;;;;;;2.88;1.30;;;;;;;;;;10601602;28;20092;-83
2023/12/12 13:59:22;;;;;;;4.22;1.55;;;;;;;;;;10596481;28;20411;-85
2023/12/12 14:05:01;;;;;;;3.78;1.55;;;;;;;;;;10531210;28;20038;-84
2023/12/12 14:10:24;;;;;;;4.03;1.23;;;;;;;;;;10605331;28;20038;-83
2023/12/12 14:15:25;;;;;;;4.55;1.50;;;;;;;;;;10574320;28;20597;-82
2023/12/12 14:20:43;;;;;;;;;;;;;;;;;;10577321;28;20027;-85
2023/12/12 14:25:44;;;;;;;3.40;1.38;;;;;;;;;;10575905;28;20363;-82
2023/12/12 14:30:46;;;;;;;;;;;;;;;;;;10588887;28;20122;-83
2023/12/12 14:36:12;;;;;;;4.75;1.52;;;;;;;;;;10591819;28;19903;-85
2023/12/12 14:41:13;;;;;;;2.78;1.08;;;;;;;;;;10574784;28;20436;-83
2023/12/12 14:46:14;;;;;;;4.95;2.90;;;;;;;;;;10578016;28;20023;-83
2023/12/12 14:51:22;;;;;;;3.85;1.60;;;;;;;;;;10577970;28;20031;-84
2023/12/12 14:56:24;;;;;;;5.03;1.52;;;;;;;;;;10575169;28;20119;-84
2023/12/12 15:01:28;;;;;;;6.18;1.92;;;;;;;;;;10576867;28;20058;-84
2023/12/12 15:06:29;;;;;;;4.72;2.22;;;;;;;;;;10603888;28;20012;-83
2023/12/12 15:11:31;;;;;;;5.55;2.30;;;;;;;;;;10604548;28;20090;-84
2023/12/12 15:16:32;;;;;;;5.10;2.28;;;;;;;;;;10608396;28;20053;-84
2023/12/12 15:21:39;;;;;;;4.40;1.90;;;;;;;;;;10593591;28;20073;-84
2023/12/12 15:26:40;;;;;;;3.85;1.67;;;;;;;;;;10619839;28;20093;-84
2023/12/12 15:31:41;;;;;;;;;;;;;;;;;;10595437;28;20035;-83
2023/12/12 15:37:18;;;;;;;4.65;2.25;;;;;;;;;;10599093;28;19907;-86
2023/12/12 15:42:19;;;;;;;5.70;2.72;;;;;;;;;;10586878;28;20145;-84
2023/12/12 15:47:20;;;;;;;;;;;;;;;;;;10595067;28;20042;-85
2023/12/12 15:52:21;;;;;;;4.72;3.00;;;;;;;;;;10587641;28;20018;-83
2023/12/12 15:57:22;;;;;;;5.13;3.03;;;;;;;;;;10609823;28;20035;-83
2023/12/12 16:02:23;;;;;;;3.83;2.30;;;;;;;;;;10600282;28;20024;-84
2023/12/12 16:07:24;;;;;;;;;;;;;;;;;;10580734;28;20108;-83
2023/12/12 16:12:26;;;;;;;3.50;2.03;;;;;;;;;;10580272;28;20375;-82
2023/12/12 16:17:27;;;;;;;7.72;1.70;;;;;;;;;;10578474;28;20174;-82
2023/12/12 16:22:28;;;;;;;;;;;;;;;;;;10580104;28;20140;-82
2023/12/12 16:27:29;;;;;;;4.30;2.10;;;;;;;;;;10578734;28;20015;-83
2023/12/12 16:32:52;;;;;;;3.53;1.95;;;;;;;;;;10601554;28;20110;-82
2023/12/12 16:37:53;;;;;;;2.95;1.80;;;;;;;;;;10582376;28;20023;-84
2023/12/12 16:42:55;;;;;;;5.10;3.03;;;;;;;;;;10582224;28;20035;-84
2023/12/12 16:47:56;;;;;;;2.90;1.70;;;;;;;;;;10599224;28;20047;-82
2023/12/12 16:52:57;;;;;;;;;;;;;;;;;;10596878;28;20440;-83
2023/12/12 16:57:58;;;;;;;3.83;2.10;;;;;;;;;;10574229;28;19911;-81
2023/12/12 17:02:59;;;;;;;3.70;2.30;;;;;;;;;;10576278;28;20043;-82
2023/12/12 17:08:02;;;;;;;4.82;2.22;;;;;;;;;;10581861;28;20027;-81
2023/12/12 17:13:04;;;;;;;4.93;3.15;;;;;;;;;;10597178;28;20094;-82
2023/12/12 17:18:05;;;;;;;3.28;1.80;;;;;;;;;;10608648;28;20057;-81
2023/12/12 17:23:06;;;;;;;5.22;2.28;;;;;;;;;;10599468;28;20157;-84
2023/12/12 17:28:09;;;;;;;;;;;;;;;;;;10577547;28;20069;-84
2023/12/12 17:33:10;;;;;;;4.72;2.60;;;;;;;;;;10577402;28;19903;-84
2023/12/12 17:38:11;;;;;;;;;;;;;;;;;;10576690;28;20478;-84
2023/12/12 17:43:12;;;;;;;7.90;3.28;;;;;;;;;;10597094;28;19912;-86
2023/12/12 17:48:33;;;;;;;4.13;3.17;;;;;;;;;;10554357;28;20406;-86
2023/12/12 17:53:35;;;;;;;4.15;3.00;;;;;;;;;;10572638;28;20055;-85
2023/12/12 17:58:36;;;;;;;6.18;3.70;;;;;;;;;;10574903;28;20126;-86
2023/12/12 18:03:37;;;;;;;;;;;;;;;;;;10574885;28;20034;-85
2023/12/12 18:08:40;;;;;;;4.93;2.90;;;;;;;;;;10594915;28;19904;-86
2023/12/12 18:13:41;;;;;;;4.18;2.10;;;;;;;;;;10577796;28;20039;-86
2023/12/12 18:18:42;;;;;;;;;;;;;;;;;;10607328;28;20060;-84
2023/12/12 18:23:50;;;;;;;4.25;2.80;;;;;;;;;;10596190;28;19963;-85
2023/12/12 18:28:56;;;;;;;5.13;2.83;;;;;;;;;;10600702;28;20079;-86
2023/12/12 18:33:58;;;;;;;5.82;3.70;;;;;;;;;;10578017;28;20026;-85
2023/12/12 18:38:59;;;;;;;5.20;3.15;;;;;;;;;;10576078;28;20081;-85
2023/12/12 18:44:00;;;;;;;3.17;1.92;;;;;;;;;;10576361;28;20067;-85
2023/12/12 18:49:03;;;;;;;;;;;;;;;;;;10575527;28;20122;-84
2023/12/12 18:54:05;;;;;;;6.28;4.30;;;;;;;;;;10572153;28;19904;-85
2023/12/12 18:59:06;;;;;;;6.20;4.40;;;;;;;;;;10556017;22;20048;-84
2023/12/12 19:04:08;;;;;;;3.33;2.35;;;;;;;;;;10538577;28;20032;-84
2023/12/12 19:09:11;;;;;;;4.20;2.55;;;;;;;;;;10516525;28;20028;-84
2023/12/12 19:14:14;;;;;;;4.93;3.75;;;;;;;;;;10511058;28;20037;-84
2023/12/12 19:19:23;;;;;;;6.07;4.05;;;;;;;;;;10513564;28;20029;-84
2023/12/12 19:24:26;;;;;;;4.93;3.55;;;;;;;;;;10513588;28;20029;-84
2023/12/12 19:29:27;;;;;;;3.78;2.25;;;;;;;;;;10512844;28;20025;-84
2023/12/12 19:34:28;;;;;;;6.32;3.00;;;;;;;;;;10510277;28;20125;-83
2023/12/12 19:39:31;;;;;;;4.22;2.28;;;;;;;;;;10513780;28;20028;-84
2023/12/12 19:44:38;;;;;;;3.15;1.83;;;;;;;;;;10513847;28;20024;-84
2023/12/12 19:49:44;;;;;;;3.53;2.00;;;;;;;;;;10518593;28;20028;-84
2023/12/12 19:54:45;;;;;;;2.70;2.00;;;;;;;;;;10520376;28;20028;-84
2023/12/12 19:59:48;;;;;;;4.10;2.70;;;;;;;;;;10526884;28;20063;-84
2023/12/12 20:04:50;;;;;;;3.00;1.90;;;;;;;;;;10528191;28;20029;-83
2023/12/12 20:09:51;;;;;;;2.80;1.80;;;;;;;;;;10523348;28;20096;-84
